createdAt,value
2023-02-12T00:02:04.049Z,5.70
2023-02-12T00:04:30.873Z,5.80
2023-02-12T00:06:57.616Z,5.80
2023-02-12T00:09:24.405Z,5.90
2023-02-12T00:11:51.277Z,5.90
2023-02-12T00:14:18.519Z,6.00
2023-02-12T00:16:45.338Z,6.00
2023-02-12T00:19:12.082Z,6.10
2023-02-12T00:21:38.860Z,6.10
2023-02-12T00:24:05.774Z,6.10
2023-02-12T00:26:32.726Z,6.10
2023-02-12T00:28:59.426Z,6.10
2023-02-12T00:31:29.558Z,6.20
2023-02-12T00:33:57.021Z,6.30
2023-02-12T00:36:26.124Z,6.30
2023-02-12T00:38:54.648Z,6.30
2023-02-12T00:41:22.465Z,6.30
2023-02-12T00:43:49.976Z,6.30
2023-02-12T00:46:17.130Z,6.30
2023-02-12T00:48:43.918Z,6.30
2023-02-12T00:51:10.825Z,6.30
2023-02-12T00:53:38.140Z,6.40
2023-02-12T00:56:05.349Z,6.40
2023-02-12T00:58:32.312Z,6.30
2023-02-12T01:00:59.035Z,6.40
2023-02-12T01:03:26.007Z,6.40
2023-02-12T01:05:53.941Z,6.40
2023-02-12T01:08:20.991Z,6.30
2023-02-12T01:10:56.746Z,6.30
2023-02-12T01:13:25.599Z,6.20
2023-02-12T01:16:21.972Z,6.10
2023-02-12T01:18:49.684Z,6.10
2023-02-12T01:21:21.951Z,6.10
2023-02-12T01:23:49.710Z,6.10
2023-02-12T01:26:17.722Z,6.00
2023-02-12T01:28:48.492Z,6.00
2023-02-12T01:31:18.348Z,6.00
2023-02-12T01:33:48.993Z,6.00
2023-02-12T01:36:15.714Z,6.00
2023-02-12T01:38:42.611Z,6.00
2023-02-12T01:41:15.325Z,5.90
2023-02-12T01:43:42.504Z,5.90
2023-02-12T01:46:13.953Z,5.90
2023-02-12T01:48:44.758Z,5.90
2023-02-12T01:51:17.335Z,5.90
2023-02-12T01:53:50.536Z,6.00
2023-02-12T01:56:18.110Z,6.10
2023-02-12T01:58:46.150Z,6.10
2023-02-12T02:01:24.008Z,6.10
2023-02-12T02:03:54.673Z,6.10
2023-02-12T02:06:27.787Z,6.10
2023-02-12T02:08:56.669Z,6.20
2023-02-12T02:11:42.304Z,6.20
2023-02-12T02:14:27.740Z,6.10
2023-02-12T02:17:08.013Z,6.10
2023-02-12T02:19:53.354Z,6.10
2023-02-12T02:22:31.896Z,6.10
2023-02-12T02:25:29.101Z,6.10
2023-02-12T02:28:01.988Z,6.00
2023-02-12T02:30:55.115Z,6.00
2023-02-12T02:33:27.793Z,5.90
2023-02-12T02:35:59.838Z,5.90
2023-02-12T02:38:41.428Z,5.90
2023-02-12T02:41:19.567Z,5.90
2023-02-12T02:43:50.022Z,5.90
2023-02-12T02:46:24.813Z,5.90
2023-02-12T02:49:00.496Z,5.90
2023-02-12T02:51:31.980Z,6.00
2023-02-12T02:54:06.872Z,6.00
2023-02-12T02:56:38.026Z,5.90
2023-02-12T02:59:13.063Z,5.90
2023-02-12T03:01:45.610Z,5.90
2023-02-12T03:04:32.961Z,5.80
2023-02-12T03:07:06.661Z,5.70
2023-02-12T03:09:43.574Z,5.70
2023-02-12T03:12:15.339Z,5.80
2023-02-12T03:14:53.957Z,5.70
2023-02-12T03:17:37.778Z,5.80
2023-02-12T03:20:12.285Z,5.80
2023-02-12T03:22:43.469Z,5.70
2023-02-12T03:25:15.066Z,5.80
2023-02-12T03:27:51.988Z,5.80
2023-02-12T03:30:20.856Z,5.90
2023-02-12T03:33:28.802Z,5.80
2023-02-12T03:36:07.808Z,5.90
2023-02-12T03:38:52.992Z,5.90
2023-02-12T03:41:28.570Z,5.90
2023-02-12T03:44:08.506Z,5.80
2023-02-12T03:47:11.536Z,5.70
2023-02-12T03:49:54.255Z,5.70
2023-02-12T03:52:21.203Z,5.70
2023-02-12T03:54:48.140Z,5.70
2023-02-12T03:57:22.612Z,5.70
2023-02-12T03:59:50.933Z,5.70
2023-02-12T04:02:19.141Z,5.60
2023-02-12T04:04:47.629Z,5.50
2023-02-12T04:07:15.630Z,5.50
2023-02-12T04:09:42.524Z,5.40
2023-02-12T04:12:15.785Z,5.40
2023-02-12T04:15:00.231Z,5.50
2023-02-12T04:17:50.193Z,5.50
2023-02-12T04:20:35.252Z,5.50
2023-02-12T04:23:15.481Z,5.50
2023-02-12T04:25:45.346Z,5.60
2023-02-12T04:28:30.637Z,5.60
2023-02-12T04:31:01.292Z,5.70
2023-02-12T04:33:39.595Z,5.70
2023-02-12T04:36:20.595Z,5.70
2023-02-12T04:39:00.991Z,5.60
2023-02-12T04:41:27.894Z,5.50
2023-02-12T04:43:54.780Z,5.40
2023-02-12T04:46:21.573Z,5.40
2023-02-12T04:48:57.373Z,5.40
2023-02-12T04:51:24.235Z,5.40
2023-02-12T04:53:51.073Z,5.30
2023-02-12T04:56:17.887Z,5.30
2023-02-12T04:58:44.759Z,5.40
2023-02-12T05:01:11.577Z,5.40
2023-02-12T05:03:38.569Z,5.40
2023-02-12T05:06:07.331Z,5.30
2023-02-12T05:08:34.153Z,5.20
2023-02-12T05:11:09.260Z,5.20
2023-02-12T05:13:36.503Z,5.30
2023-02-12T05:16:07.801Z,5.30
2023-02-12T05:18:36.809Z,5.30
2023-02-12T05:21:05.019Z,5.40
2023-02-12T05:23:34.421Z,5.40
2023-02-12T05:26:03.511Z,5.40
2023-02-12T05:28:30.705Z,5.40
2023-02-12T05:31:02.974Z,5.30
2023-02-12T05:33:30.045Z,5.30
2023-02-12T05:36:02.685Z,5.30
2023-02-12T05:38:29.577Z,5.30
2023-02-12T05:41:02.801Z,5.20
2023-02-12T05:43:29.537Z,5.10
2023-02-12T05:46:00.819Z,5.00
2023-02-12T05:48:28.513Z,4.80
2023-02-12T05:51:01.249Z,4.70
2023-02-12T05:53:28.005Z,4.70
2023-02-12T05:55:55.094Z,4.70
2023-02-12T05:58:22.013Z,4.60
2023-02-12T06:00:50.286Z,4.70
2023-02-12T06:03:18.594Z,4.80
2023-02-12T06:05:51.148Z,4.80
2023-02-12T06:08:18.436Z,4.80
2023-02-12T06:10:45.788Z,4.80
2023-02-12T06:13:12.918Z,4.80
2023-02-12T06:15:39.881Z,4.80
2023-02-12T06:18:07.652Z,4.80
2023-02-12T06:20:34.463Z,4.70
2023-02-12T06:23:01.285Z,4.80
2023-02-12T06:25:28.057Z,4.70
2023-02-12T06:27:55.455Z,4.60
2023-02-12T06:30:23.174Z,4.70
2023-02-12T06:32:51.473Z,4.70
2023-02-12T06:35:18.443Z,4.70
2023-02-12T06:37:45.419Z,4.60
2023-02-12T06:40:12.998Z,4.60
2023-02-12T06:42:40.113Z,4.60
2023-02-12T06:45:07.220Z,4.60
2023-02-12T06:47:34.020Z,4.60
2023-02-12T06:50:00.726Z,4.50
2023-02-12T06:52:27.942Z,4.70
2023-02-12T06:54:54.665Z,4.70
2023-02-12T06:57:21.486Z,4.70
2023-02-12T06:59:49.523Z,4.70
2023-02-12T07:02:16.215Z,4.80
2023-02-12T07:04:42.987Z,4.90
2023-02-12T07:07:09.668Z,4.80
2023-02-12T07:09:36.412Z,4.80
2023-02-12T07:12:03.510Z,4.80
2023-02-12T07:14:30.335Z,4.80
2023-02-12T07:16:57.588Z,4.80
2023-02-12T07:19:24.537Z,4.90
2023-02-12T07:21:51.281Z,4.90
2023-02-12T07:24:20.977Z,4.90
2023-02-12T07:26:47.842Z,5.00
2023-02-12T07:29:14.757Z,5.10
2023-02-12T07:31:41.789Z,5.00
2023-02-12T07:34:09.547Z,5.10
2023-02-12T07:36:37.245Z,5.20
2023-02-12T07:39:04.362Z,5.10
2023-02-12T07:41:33.752Z,5.00
2023-02-12T07:44:06.793Z,5.10
2023-02-12T07:46:42.736Z,5.10
2023-02-12T07:49:17.339Z,5.10
2023-02-12T07:51:44.133Z,5.30
2023-02-12T07:54:12.071Z,5.30
2023-02-12T07:56:41.164Z,5.40
2023-02-12T07:59:11.553Z,5.30
2023-02-12T08:01:40.749Z,5.30
2023-02-12T08:04:10.432Z,5.50
2023-02-12T08:06:40.096Z,5.50
2023-02-12T08:09:09.999Z,5.60
2023-02-12T08:11:38.542Z,5.70
2023-02-12T08:14:05.661Z,5.80
2023-02-12T08:16:37.323Z,5.80
2023-02-12T08:19:17.098Z,5.90
2023-02-12T08:21:47.350Z,6.00
2023-02-12T08:24:14.185Z,6.10
2023-02-12T08:26:41.055Z,6.10
2023-02-12T08:29:56.839Z,6.10
2023-02-12T08:32:23.586Z,6.20
2023-02-12T08:34:50.328Z,6.10
2023-02-12T08:37:17.096Z,6.10
2023-02-12T08:39:43.856Z,6.20
2023-02-12T08:42:10.603Z,6.30
2023-02-12T08:44:37.320Z,6.30
2023-02-12T08:47:04.280Z,6.20
2023-02-12T08:49:31.294Z,6.40
2023-02-12T08:51:59.862Z,6.20
2023-02-12T08:54:27.972Z,6.30
2023-02-12T08:56:56.838Z,6.30
2023-02-12T08:59:23.770Z,6.40
2023-02-12T09:01:52.166Z,6.30
2023-02-12T09:04:24.217Z,6.40
2023-02-12T09:06:51.864Z,6.60
2023-02-12T09:09:19.890Z,6.70
2023-02-12T09:11:47.804Z,6.40
2023-02-12T09:14:16.816Z,6.40
2023-02-12T09:16:43.746Z,6.60
2023-02-12T09:19:13.336Z,6.60
2023-02-12T09:21:40.589Z,6.80
2023-02-12T09:24:07.423Z,6.80
2023-02-12T09:26:34.240Z,6.70
2023-02-12T09:29:02.671Z,6.70
2023-02-12T09:31:31.628Z,6.80
2023-02-12T09:34:01.061Z,6.90
2023-02-12T09:36:27.953Z,7.00
2023-02-12T09:38:55.076Z,7.20
2023-02-12T09:41:59.000Z,7.30
2023-02-12T09:44:52.494Z,7.50
2023-02-12T09:47:33.180Z,7.60
2023-02-12T09:50:34.767Z,7.70
2023-02-12T09:53:02.313Z,7.60
2023-02-12T09:55:34.522Z,7.30
2023-02-12T09:58:04.868Z,7.00
2023-02-12T10:00:32.190Z,7.20
2023-02-12T10:03:05.905Z,7.40
2023-02-12T10:05:42.877Z,7.40
2023-02-12T10:08:50.228Z,7.60
2023-02-12T10:11:53.231Z,7.70
2023-02-12T10:14:42.021Z,7.50
2023-02-12T10:17:27.708Z,7.30
2023-02-12T10:20:16.085Z,7.40
2023-02-12T10:23:01.311Z,7.20
2023-02-12T10:25:53.833Z,7.00
2023-02-12T10:28:29.197Z,7.10
2023-02-12T10:30:59.896Z,7.00
2023-02-12T10:33:37.785Z,7.20
2023-02-12T10:36:14.525Z,7.20
2023-02-12T10:38:47.115Z,7.00
2023-02-12T10:41:16.545Z,7.00
2023-02-12T10:43:43.543Z,7.00
2023-02-12T10:46:17.374Z,7.20
2023-02-12T10:48:47.948Z,7.30
2023-02-12T10:51:53.204Z,7.50
2023-02-12T10:54:40.263Z,7.40
2023-02-12T10:57:27.955Z,7.30
2023-02-12T10:59:58.024Z,7.30
2023-02-12T11:02:34.090Z,7.30
2023-02-12T11:05:22.014Z,7.20
2023-02-12T11:07:50.980Z,7.20
2023-02-12T11:10:39.910Z,7.30
2023-02-12T11:13:22.235Z,7.30
2023-02-12T11:15:49.873Z,7.40
2023-02-12T11:18:26.786Z,7.40
2023-02-12T11:20:57.749Z,7.30
2023-02-12T11:23:46.095Z,7.20
2023-02-12T11:26:19.084Z,7.10
2023-02-12T11:29:17.182Z,7.00
2023-02-12T11:32:08.697Z,7.00
2023-02-12T11:34:36.560Z,7.10
2023-02-12T11:37:04.063Z,7.30
2023-02-12T11:39:38.341Z,7.40
2023-02-12T11:42:23.925Z,7.50
2023-02-12T11:44:57.047Z,7.60
2023-02-12T11:47:36.137Z,7.70
2023-02-12T11:50:26.837Z,7.70
2023-02-12T11:52:58.633Z,7.90
2023-02-12T11:55:29.212Z,7.80
2023-02-12T11:58:20.508Z,7.60
2023-02-12T12:00:52.205Z,7.60
2023-02-12T12:03:30.583Z,7.60
2023-02-12T12:06:07.161Z,7.60
2023-02-12T12:08:49.885Z,7.70
2023-02-12T12:11:22.056Z,7.70
2023-02-12T12:14:00.888Z,7.80
2023-02-12T12:17:13.094Z,7.90
2023-02-12T12:19:56.227Z,8.00
2023-02-12T12:22:39.774Z,8.00
2023-02-12T12:25:27.501Z,8.00
2023-02-12T12:28:08.420Z,7.90
2023-02-12T12:31:09.896Z,8.00
2023-02-12T12:33:52.131Z,8.20
2023-02-12T12:37:03.477Z,8.20
2023-02-12T12:39:56.166Z,8.20
2023-02-12T12:42:53.543Z,8.20
2023-02-12T12:45:50.322Z,8.20
2023-02-12T12:48:32.160Z,8.10
2023-02-12T12:51:31.302Z,8.40
2023-02-12T12:54:10.666Z,8.20
2023-02-12T12:56:52.219Z,8.10
2023-02-12T12:59:19.163Z,7.90
2023-02-12T13:02:04.584Z,7.80
2023-02-12T13:04:31.241Z,7.90
2023-02-12T13:07:10.014Z,7.80
2023-02-12T13:10:13.392Z,7.90
2023-02-12T13:12:55.454Z,7.90
2023-02-12T13:15:36.392Z,7.90
2023-02-12T13:18:13.787Z,7.70
2023-02-12T13:20:55.793Z,7.70
2023-02-12T13:23:39.208Z,7.90
2023-02-12T13:26:30.971Z,8.10
2023-02-12T13:29:17.331Z,8.20
2023-02-12T13:32:13.907Z,8.10
2023-02-12T13:34:43.396Z,8.00
2023-02-12T13:37:21.590Z,7.90
2023-02-12T13:39:50.070Z,7.80
2023-02-12T13:42:36.537Z,7.80
2023-02-12T13:45:25.167Z,7.80
2023-02-12T13:48:22.415Z,7.90
2023-02-12T13:51:02.861Z,8.10
2023-02-12T13:53:48.323Z,7.90
2023-02-12T13:56:43.940Z,7.90
2023-02-12T13:59:34.895Z,7.80
2023-02-12T14:02:26.666Z,7.80
2023-02-12T14:04:53.366Z,7.80
2023-02-12T14:07:22.051Z,7.90
2023-02-12T14:09:51.542Z,7.80
2023-02-12T14:12:32.247Z,7.70
2023-02-12T14:15:16.422Z,7.70
2023-02-12T14:17:57.023Z,7.70
2023-02-12T14:20:35.706Z,7.70
2023-02-12T14:23:20.428Z,7.60
2023-02-12T14:25:57.665Z,7.60
2023-02-12T14:28:48.876Z,7.60
2023-02-12T14:31:18.859Z,7.60
2023-02-12T14:33:50.664Z,7.60
2023-02-12T14:36:32.534Z,7.60
2023-02-12T14:39:02.049Z,7.60
2023-02-12T14:41:43.219Z,7.60
2023-02-12T14:44:23.247Z,7.60
2023-02-12T14:46:53.187Z,7.60
2023-02-12T14:49:34.366Z,7.60
2023-02-12T14:52:06.552Z,7.60
2023-02-12T14:54:43.131Z,7.60
2023-02-12T14:57:22.078Z,7.60
2023-02-12T14:59:50.264Z,7.60
2023-02-12T15:02:28.428Z,7.50
2023-02-12T15:05:02.330Z,7.50
2023-02-12T15:07:35.703Z,7.50
2023-02-12T15:10:15.273Z,7.40
2023-02-12T15:12:54.987Z,7.40
2023-02-12T15:15:34.722Z,7.30
2023-02-12T15:18:21.914Z,7.40
2023-02-12T15:20:55.117Z,7.40
2023-02-12T15:23:39.990Z,7.30
2023-02-12T15:26:15.509Z,7.40
2023-02-12T15:28:43.214Z,7.30
2023-02-12T15:31:11.036Z,7.30
2023-02-12T15:33:46.699Z,7.30
2023-02-12T15:36:21.326Z,7.30
2023-02-12T15:39:08.075Z,7.20
2023-02-12T15:41:41.908Z,7.20
2023-02-12T15:44:22.883Z,7.10
2023-02-12T15:47:11.056Z,7.10
2023-02-12T15:49:39.228Z,7.10
2023-02-12T15:52:16.591Z,7.00
2023-02-12T15:54:45.975Z,7.00
2023-02-12T15:57:19.930Z,6.90
2023-02-12T15:59:52.263Z,6.90
2023-02-12T16:02:30.046Z,6.90
2023-02-12T16:04:58.149Z,6.90
2023-02-12T16:07:36.155Z,6.90
2023-02-12T16:10:05.228Z,6.80
2023-02-12T16:12:36.855Z,6.80
2023-02-12T16:15:04.648Z,6.80
2023-02-12T16:17:34.324Z,6.70
2023-02-12T16:20:18.026Z,6.70
2023-02-12T16:22:47.759Z,6.60
2023-02-12T16:25:29.472Z,6.60
2023-02-12T16:28:06.910Z,6.60
2023-02-12T16:30:43.003Z,6.50
2023-02-12T16:33:40.609Z,6.40
2023-02-12T16:36:20.176Z,6.30
2023-02-12T16:38:59.713Z,6.30
2023-02-12T16:41:27.558Z,6.30
2023-02-12T16:43:54.213Z,6.30
2023-02-12T16:46:20.956Z,6.20
2023-02-12T16:48:51.704Z,6.20
2023-02-12T16:51:21.185Z,6.20
2023-02-12T16:53:50.082Z,6.20
2023-02-12T16:56:18.718Z,6.20
2023-02-12T16:58:50.944Z,6.10
2023-02-12T17:01:22.555Z,6.10
2023-02-12T17:03:51.128Z,6.10
2023-02-12T17:06:29.715Z,6.10
2023-02-12T17:08:57.061Z,6.10
2023-02-12T17:11:24.702Z,6.10
2023-02-12T17:13:53.217Z,6.10
2023-02-12T17:16:30.208Z,6.10
2023-02-12T17:18:58.037Z,6.10
2023-02-12T17:21:28.224Z,6.10
2023-02-12T17:23:55.240Z,6.00
2023-02-12T17:26:23.260Z,6.00
2023-02-12T17:28:50.123Z,6.00
2023-02-12T17:31:17.159Z,6.00
2023-02-12T17:33:44.478Z,6.00
2023-02-12T17:36:12.193Z,6.00
2023-02-12T17:38:38.925Z,5.90
2023-02-12T17:41:10.632Z,5.80
2023-02-12T17:43:37.443Z,5.80
2023-02-12T17:46:13.120Z,5.80
2023-02-12T17:48:40.674Z,5.70
2023-02-12T17:51:09.944Z,5.60
2023-02-12T17:53:36.721Z,5.60
2023-02-12T17:56:03.987Z,5.50
2023-02-12T17:58:31.272Z,5.50
2023-02-12T18:01:03.689Z,5.40
2023-02-12T18:03:30.408Z,5.40
2023-02-12T18:05:57.053Z,5.40
2023-02-12T18:08:23.802Z,5.40
2023-02-12T18:10:50.602Z,5.40
2023-02-12T18:13:17.280Z,5.40
2023-02-12T18:15:44.083Z,5.30
2023-02-12T18:18:10.884Z,5.30
2023-02-12T18:20:40.808Z,5.30
2023-02-12T18:23:08.562Z,5.30
2023-02-12T18:25:40.094Z,5.30
2023-02-12T18:28:06.955Z,5.20
2023-02-12T18:30:33.895Z,5.20
2023-02-12T18:33:00.687Z,5.20
2023-02-12T18:35:27.536Z,5.10
2023-02-12T18:37:54.284Z,5.10
2023-02-12T18:40:21.173Z,5.10
2023-02-12T18:42:47.977Z,5.10
2023-02-12T18:45:14.727Z,5.10
2023-02-12T18:47:41.975Z,5.10
2023-02-12T18:50:09.279Z,5.10
2023-02-12T18:52:37.171Z,5.00
2023-02-12T18:55:05.857Z,4.90
2023-02-12T18:57:32.787Z,4.90
2023-02-12T18:59:59.575Z,4.90
2023-02-12T19:02:26.398Z,4.90
2023-02-12T19:04:54.222Z,4.80
2023-02-12T19:07:21.126Z,4.80
2023-02-12T19:09:47.950Z,4.80
2023-02-12T19:12:14.737Z,4.70
2023-02-12T19:14:41.434Z,4.70
2023-02-12T19:17:08.216Z,4.70
2023-02-12T19:19:35.014Z,4.60
2023-02-12T19:22:01.770Z,4.60
2023-02-12T19:24:40.927Z,4.50
2023-02-12T19:27:12.506Z,4.50
2023-02-12T19:29:39.284Z,4.40
2023-02-12T19:32:06.061Z,4.40
2023-02-12T19:34:32.944Z,4.40
2023-02-12T19:36:59.701Z,4.40
2023-02-12T19:39:26.563Z,4.40
2023-02-12T19:41:53.509Z,4.40
2023-02-12T19:44:22.984Z,4.40
2023-02-12T19:46:51.390Z,4.40
2023-02-12T19:49:20.912Z,4.40
2023-02-12T19:51:48.055Z,4.30
2023-02-12T19:54:16.519Z,4.20
2023-02-12T19:56:44.010Z,4.20
2023-02-12T19:59:13.349Z,4.30
2023-02-12T20:01:40.451Z,4.30
2023-02-12T20:04:07.560Z,4.30
2023-02-12T20:06:36.678Z,4.20
2023-02-12T20:09:06.076Z,4.20
2023-02-12T20:11:39.807Z,4.20
2023-02-12T20:14:08.968Z,4.20
2023-02-12T20:16:38.262Z,4.10
2023-02-12T20:19:08.545Z,4.10
2023-02-12T20:21:35.687Z,4.00
2023-02-12T20:24:02.666Z,4.00
2023-02-12T20:26:40.529Z,4.00
2023-02-12T20:29:07.323Z,4.00
2023-02-12T20:31:37.527Z,4.00
2023-02-12T20:34:11.350Z,3.90
2023-02-12T20:36:40.427Z,3.90
2023-02-12T20:39:10.574Z,3.90
2023-02-12T20:41:37.430Z,3.90
2023-02-12T20:44:06.104Z,4.00
2023-02-12T20:46:36.182Z,4.00
2023-02-12T20:49:03.294Z,4.00
2023-02-12T20:51:30.003Z,4.00
2023-02-12T20:53:59.268Z,4.00
2023-02-12T20:56:29.245Z,3.90
2023-02-12T20:58:56.362Z,3.80
2023-02-12T21:01:25.879Z,3.80
2023-02-12T21:03:53.974Z,3.70
2023-02-12T21:06:22.828Z,3.60
2023-02-12T21:08:51.251Z,3.70
2023-02-12T21:11:23.617Z,3.70
2023-02-12T21:14:18.418Z,3.70
2023-02-12T21:16:46.830Z,3.60
2023-02-12T21:19:17.046Z,3.60
2023-02-12T21:21:45.344Z,3.60
2023-02-12T21:24:18.147Z,3.60
2023-02-12T21:26:44.964Z,3.60
2023-02-12T21:29:11.817Z,3.70
2023-02-12T21:31:41.318Z,3.70
2023-02-12T21:34:11.553Z,3.70
2023-02-12T21:36:39.864Z,3.70
2023-02-12T21:39:08.647Z,3.70
2023-02-12T21:41:37.843Z,3.80
2023-02-12T21:44:13.397Z,3.80
2023-02-12T21:46:40.847Z,3.70
2023-02-12T21:49:08.142Z,3.60
2023-02-12T21:51:38.175Z,3.50
2023-02-12T21:54:08.041Z,3.50
2023-02-12T21:56:37.039Z,3.40
2023-02-12T21:59:04.498Z,3.40
2023-02-12T22:01:34.315Z,3.30
2023-02-12T22:04:02.246Z,3.30
2023-02-12T22:06:29.584Z,3.30
2023-02-12T22:09:00.560Z,3.20
2023-02-12T22:11:27.285Z,3.10
2023-02-12T22:13:54.129Z,3.10
2023-02-12T22:16:26.452Z,3.00
2023-02-12T22:18:55.616Z,3.00
2023-02-12T22:21:24.258Z,2.90
2023-02-12T22:23:51.712Z,2.90
2023-02-12T22:26:21.506Z,2.90
2023-02-12T22:28:50.485Z,2.90
2023-02-12T22:31:21.971Z,2.80
2023-02-12T22:34:11.820Z,2.70
2023-02-12T22:36:39.964Z,2.80
2023-02-12T22:39:07.272Z,2.90
2023-02-12T22:41:34.890Z,2.90
2023-02-12T22:44:05.059Z,3.00
2023-02-12T22:46:33.153Z,2.90
2023-02-12T22:49:00.634Z,2.70
2023-02-12T22:51:29.454Z,2.70
2023-02-12T22:53:56.780Z,2.50
2023-02-12T22:56:24.842Z,2.40
2023-02-12T22:58:56.730Z,2.50
2023-02-12T23:01:24.053Z,2.50
2023-02-12T23:03:51.524Z,2.40
2023-02-12T23:06:20.651Z,2.20
2023-02-12T23:08:56.174Z,2.20
2023-02-12T23:11:24.531Z,2.10
2023-02-12T23:13:52.047Z,2.10
2023-02-12T23:16:18.899Z,2.10
2023-02-12T23:18:45.798Z,2.10
2023-02-12T23:21:13.360Z,2.00
2023-02-12T23:23:40.494Z,2.00
2023-02-12T23:26:07.414Z,2.00
2023-02-12T23:28:34.249Z,2.10
2023-02-12T23:31:01.606Z,2.00
2023-02-12T23:33:28.698Z,2.10
2023-02-12T23:35:55.534Z,1.90
2023-02-12T23:38:22.509Z,1.90
2023-02-12T23:40:49.324Z,1.70
2023-02-12T23:43:16.258Z,1.70
2023-02-12T23:45:44.687Z,1.70
2023-02-12T23:48:12.009Z,1.60
2023-02-12T23:50:39.055Z,1.50
2023-02-12T23:53:05.831Z,1.50
2023-02-12T23:55:35.437Z,1.60
2023-02-12T23:58:03.210Z,1.70
